Eden Real Estate, NSW, 2551 Bega Valley

Thinking about buying in Eden? Now could not be a better time, with a whopping 2821 properties either residential or commercial there's certainly plenty to choose from.

The average property price for this area is $731,000 with prices in this suburb ranging from $138,000 to $3,024,000.

Eden is located near the coast as well as views of the ocean, demand is likely to be high

Eden Real Estate Market Outlook

In Eden there has been a history of lower than average prices and demand, offering opportunities for investors or first home owners, especially in the context of the growth in working from home. Low average incomes in Eden is reflected in smaller and lower quality accommodation. Over time this may change providsing long-term returns but in the short to medium term, prices are likely to be less than state averages. Low average earnings from people in Eden leads to lower quality housing which also negatively impacts the provision of facilities. As a consequence this area is often seen as less desirable, with lower quality of housing and slower price growth. Low population density implies low demand and limits housing choices and price increases. Could be a good entry point for first home buyers needing to somehow get into the market. With very low industrial sector presence in Eden the focus is on lifestyle, driving specific demand around facilities, services, and open space. Most people are employed in service sectors with a higher than average proportion being able to work from home. This may incease demand over the medium term.

About

Properties For Sale

Local Schools


Eden Public School

Eden Marine High School

(While the above schools are located with the suburb of Eden there may also be nearby schools whose catchments cover this suburb)

Local Crime Rates


Average Local Climate by month


(mm)
RAIN
Min (°C)
TEMP
Max (°C)
TEMP
Min (%)
HUMIDITY
Max (%)
HUMIDITY
(m/sec)
WIND
(MJ/sq m)
SOLAR
Jan1.917.022.664.5908.121.9
Feb2.617.022.565.890.97.518.4
Mar2.815.821.661.189.27.515.7
Apr2.214.020.258.588.66.612.8
May2.511.317.457.488.87.09.6
Jun3.39.715.55988.96.77.7
Jul1.78.815.054.287.66.58.5
Aug2.18.915.750.987.6711
Sept2.110.517.156.189.3814.9
Oct2.411.417.956.589.28.119.3
Nov2.213.819.760.889.38.323.3
Dec2.015.121.061.088.48.425.1

source: Australian Government Bureau of Meteorology

Recently Sold Properties / House Prices

28-07-2022 $480,000 3 LAKE ST EDEN 2551
22-07-2022 $395,000 4 / 1 BLUE MARLIN CT EDEN 2551
22-07-2022 $485,000 70 KB TIMMS DR EDEN 2551
13-07-2022 $489,000 25 MARLIN AVE EDEN 2551
12-07-2022 $990,000 11 LAKE ST EDEN 2551
08-07-2022 $1,060,000 82 CALLE CALLE ST EDEN 2551
04-07-2022 $220,000 12 BELLEVUE PL EDEN 2551
29-06-2022 $573,500 20 BUNGO ST EDEN 2551
28-06-2022 $520,000 10 / 12 YULE ST EDEN 2551
27-06-2022 $460,000 4 YOUNG ST EDEN 2551
27-06-2022 $335,000 3 / 53 CALLE CALLE ST EDEN 2551
27-06-2022 $335,000 3 / 53 CALLE CALLE ST EDEN 2551
24-06-2022 $710,000 27 IDA RODD DR EDEN 2551
24-06-2022 $745,000 11 KINGFISHER CCT EDEN 2551
22-06-2022 $660,000 25 MALING ST EDEN 2551
21-06-2022 $1,540,000 31 VICTORIA TCE EDEN 2551
21-06-2022 $1,540,000 31 VICTORIA TCE EDEN 2551
09-06-2022 $340,000 3 / 4 CALLE CALLE ST EDEN 2551
02-06-2022 $890,000 32 BOYD ST EDEN 2551
31-05-2022 $850,000 29 CHANDOS ST EDEN 2551
31-05-2022 $1,310,000 220 PRINCES HWY EDEN 2551
18-05-2022 $825,000 6 VIEW ST EDEN 2551
11-05-2022 $730,000 6 TWOFOLD CT EDEN 2551
09-05-2022 $2,100,000 2 COCORA ST EDEN 2551
06-05-2022 $580,000 32 IRENE CRES EDEN 2551
06-05-2022 $710,000 3 MITCHELL ST EDEN 2551
02-05-2022 $800,000 1 BASS ST EDEN 2551
29-04-2022 $850,000 1 ALBACORE CRES EDEN 2551
29-04-2022 $865,000 9 / 6 LAKE ST EDEN 2551
28-04-2022 $650,000 96 IMLAY ST EDEN 2551
27-04-2022 $480,000 6 / 46 CURALO ST EDEN 2551
12-04-2022 $870,000 11 HOLLYDALE PL EDEN 2551
08-04-2022 $410,000 35 TRUMPETER AVE EDEN 2551
06-04-2022 $680,000 11 WELLINGS CT EDEN 2551
06-04-2022 $680,000 11 WELLINGS CT EDEN 2551
06-04-2022 $680,000 11 WELLINGS CT EDEN 2551
04-04-2022 $710,000 10 MITCHELL ST EDEN 2551
28-03-2022 $690,000 38 MITCHELL ST EDEN 2551
28-03-2022 $600,000 20 GOVERNMENT RD EDEN 2551
21-03-2022 $1,125,000 5 PHILLIPPS ST EDEN 2551
15-03-2022 $375,000 20 LAKESIDE DR EDEN 2551
14-03-2022 $844,000 8 / 6 LAKE ST EDEN 2551
14-03-2022 $280,000 7 / 2 LAKESIDE DR EDEN 2551
11-03-2022 $285,000 7 EGAN CT EDEN 2551
11-03-2022 $750,000 18 GOVERNMENT RD EDEN 2551
10-03-2022 $1,815,000 142 IMLAY ST EDEN 2551
07-03-2022 $1,500,000 10 COCORA ST EDEN 2551
01-03-2022 $31,299,161 159 IMLAY ST EDEN 2551
22-02-2022 $150,000 3 WHALE COVE CCT EDEN 2551
22-02-2022 $435,000 2 / 4 CALLE CALLE ST EDEN 2551

Internet Speed

  • Fibre to the Node
  • Fibre to the Premises
  • Fixed Wireless
  • Satellite

Residz covers 12m+ Australian properties and brings together a wealth of data to give you a better understanding of an area. From crime and schools to bush fire, flood risk and more. Begin your search for properties for sale or learn more about where you currently reside. Residz is an exciting next-generation Real Estate platform getting better by the day!